createdAt,value
2019-03-23T00:01:07.472Z,6.40
2019-03-23T00:03:36.235Z,6.47
2019-03-23T00:06:05.060Z,6.60
2019-03-23T00:08:33.827Z,6.67
2019-03-23T00:11:02.570Z,6.47
2019-03-23T00:13:31.340Z,6.10
2019-03-23T00:16:01.340Z,6.57
2019-03-23T00:18:29.876Z,6.50
2019-03-23T00:20:58.677Z,6.07
2019-03-23T00:23:27.263Z,6.80
2019-03-23T00:25:56.165Z,6.23
2019-03-23T00:28:24.587Z,6.60
2019-03-23T00:30:53.256Z,6.50
2019-03-23T00:33:22.070Z,6.50
2019-03-23T00:35:50.988Z,6.90
2019-03-23T00:38:20.862Z,7.10
2019-03-23T00:40:49.489Z,6.77
2019-03-23T00:43:17.920Z,6.60
2019-03-23T00:45:46.315Z,6.67
2019-03-23T00:48:14.729Z,6.33
2019-03-23T00:50:43.125Z,5.90
2019-03-23T00:53:11.525Z,7.00
2019-03-23T00:55:39.941Z,6.20
2019-03-23T00:58:08.345Z,6.60
2019-03-23T01:00:36.818Z,7.50
2019-03-23T01:03:05.240Z,6.83
2019-03-23T01:05:33.661Z,7.47
2019-03-23T01:08:02.070Z,6.57
2019-03-23T01:10:30.696Z,7.27
2019-03-23T01:12:59.137Z,7.13
2019-03-23T01:15:27.538Z,7.60
2019-03-23T01:17:56.149Z,7.70
2019-03-23T01:20:24.560Z,7.20
2019-03-23T01:22:53.017Z,7.33
2019-03-23T01:25:21.454Z,7.70
2019-03-23T01:27:49.849Z,6.53
2019-03-23T01:30:18.396Z,6.22
2019-03-23T01:32:46.822Z,6.53
2019-03-23T01:35:15.217Z,6.57
2019-03-23T01:37:43.613Z,6.30
2019-03-23T01:40:13.854Z,6.63
2019-03-23T01:42:42.280Z,6.83
2019-03-23T01:45:12.517Z,6.80
2019-03-23T01:47:40.939Z,6.60
2019-03-23T01:50:10.781Z,6.80
2019-03-23T01:52:39.242Z,6.37
2019-03-23T01:55:08.357Z,6.60
2019-03-23T01:57:36.846Z,6.77
2019-03-23T02:00:07.945Z,6.70
2019-03-23T02:02:36.383Z,7.33
2019-03-23T02:05:06.721Z,6.83
2019-03-23T02:07:35.132Z,7.07
2019-03-23T02:10:06.078Z,6.80
2019-03-23T02:12:34.504Z,6.93
2019-03-23T02:15:02.970Z,7.07
2019-03-23T02:17:31.394Z,7.00
2019-03-23T02:19:59.808Z,6.73
2019-03-23T02:22:28.221Z,6.70
2019-03-23T02:24:56.657Z,6.97
2019-03-23T02:27:25.075Z,6.67
2019-03-23T02:29:53.464Z,6.73
2019-03-23T02:32:21.887Z,6.77
2019-03-23T02:34:50.317Z,6.40
2019-03-23T02:37:27.618Z,7.40
2019-03-23T02:39:48.868Z,7.00
2019-03-23T02:42:17.496Z,6.80
2019-03-23T02:44:45.981Z,7.20
2019-03-23T02:47:14.400Z,6.90
2019-03-23T02:49:42.802Z,7.27
2019-03-23T02:52:11.226Z,7.13
2019-03-23T02:54:39.726Z,6.90
2019-03-23T02:57:08.147Z,7.17
2019-03-23T02:59:36.534Z,7.97
2019-03-23T03:02:04.998Z,6.43
2019-03-23T03:04:33.436Z,6.77
2019-03-23T03:07:02.254Z,6.63
2019-03-23T03:09:30.649Z,7.17
2019-03-23T03:11:59.069Z,6.63
2019-03-23T03:14:27.461Z,6.47
2019-03-23T03:16:55.865Z,6.50
2019-03-23T03:19:24.282Z,6.80
2019-03-23T03:21:52.675Z,6.43
2019-03-23T03:24:21.063Z,6.40
2019-03-23T03:26:49.484Z,6.03
2019-03-23T03:29:17.915Z,6.60
2019-03-23T03:31:46.285Z,6.10
2019-03-23T03:34:14.690Z,6.70
2019-03-23T03:36:43.182Z,6.43
2019-03-23T03:39:11.578Z,6.60
2019-03-23T03:41:39.999Z,6.60
2019-03-23T03:44:08.394Z,6.30
2019-03-23T03:46:36.796Z,6.80
2019-03-23T03:49:12.407Z,6.70
2019-03-23T03:51:35.409Z,6.13
2019-03-23T03:54:04.049Z,6.60
2019-03-23T03:56:32.491Z,6.77
2019-03-23T03:59:00.869Z,6.57
2019-03-23T04:01:29.269Z,6.57
2019-03-23T04:03:57.694Z,7.60
2019-03-23T04:06:26.085Z,7.07
2019-03-23T04:08:54.495Z,7.43
2019-03-23T04:11:22.917Z,7.97
2019-03-23T04:13:51.321Z,7.73
2019-03-23T04:16:19.707Z,7.60
2019-03-23T04:18:48.140Z,8.53
2019-03-23T04:21:16.534Z,8.33
2019-03-23T04:23:44.963Z,10.00
2019-03-23T04:26:13.357Z,10.78
2019-03-23T04:28:41.762Z,25.40
2019-03-23T04:31:10.194Z,31.90
2019-03-23T04:33:38.596Z,43.67
2019-03-23T04:36:07.747Z,47.05
2019-03-23T04:38:36.182Z,57.07
2019-03-23T04:41:04.586Z,62.87
2019-03-23T04:43:33.057Z,68.30
2019-03-23T04:46:01.490Z,69.27
2019-03-23T04:48:29.913Z,67.90
2019-03-23T04:50:58.313Z,65.07
2019-03-23T04:53:26.736Z,70.00
2019-03-23T04:55:55.144Z,74.43
2019-03-23T04:58:23.578Z,79.33
2019-03-23T05:00:51.975Z,78.07
2019-03-23T05:03:20.377Z,76.40
2019-03-23T05:05:48.809Z,77.73
2019-03-23T05:08:17.247Z,80.93
2019-03-23T05:10:45.724Z,86.00
2019-03-23T05:13:14.163Z,81.07
2019-03-23T05:15:42.561Z,85.67
2019-03-23T05:18:10.956Z,83.53
2019-03-23T05:20:39.668Z,81.43
2019-03-23T05:23:08.076Z,79.77
2019-03-23T05:25:36.469Z,79.90
2019-03-23T05:28:04.976Z,81.30
2019-03-23T05:30:33.400Z,74.97
2019-03-23T05:33:01.801Z,77.73
2019-03-23T05:35:30.229Z,78.17
2019-03-23T05:37:58.717Z,75.03
2019-03-23T05:40:27.114Z,78.17
2019-03-23T05:42:55.544Z,79.20
2019-03-23T05:45:23.949Z,77.17
2019-03-23T05:47:52.344Z,78.70
2019-03-23T05:50:20.773Z,80.30
2019-03-23T05:52:49.178Z,82.97
2019-03-23T05:55:17.573Z,80.30
2019-03-23T05:57:46.010Z,84.80
2019-03-23T06:00:16.582Z,81.55
2019-03-23T06:02:45.065Z,82.33
2019-03-23T06:05:13.653Z,83.60
2019-03-23T06:07:42.055Z,84.20
2019-03-23T06:10:10.637Z,85.07
2019-03-23T06:12:39.202Z,86.27
2019-03-23T06:15:08.035Z,84.13
2019-03-23T06:17:36.416Z,84.57
2019-03-23T06:20:07.020Z,86.40
2019-03-23T06:22:35.496Z,85.40
2019-03-23T06:25:05.635Z,87.63
2019-03-23T06:27:34.035Z,84.90
2019-03-23T06:30:02.432Z,80.33
2019-03-23T06:32:30.948Z,80.00
2019-03-23T06:34:59.351Z,76.73
2019-03-23T06:37:27.746Z,73.80
2019-03-23T06:39:56.220Z,69.97
2019-03-23T06:45:13.764Z,75.03
2019-03-23T06:47:42.168Z,70.97
2019-03-23T06:50:12.112Z,71.53
2019-03-23T06:52:40.533Z,72.33
2019-03-23T06:55:10.013Z,70.80
2019-03-23T06:57:38.504Z,69.43
2019-03-23T07:00:15.719Z,66.37
2019-03-23T07:02:44.136Z,65.53
2019-03-23T07:05:13.517Z,63.27
2019-03-23T07:07:41.919Z,60.43
2019-03-23T07:10:14.202Z,59.30
2019-03-23T07:12:42.612Z,59.93
2019-03-23T07:15:19.936Z,51.60
2019-03-23T07:17:42.013Z,52.43
2019-03-23T07:20:12.964Z,55.30
2019-03-23T07:22:41.360Z,52.33
2019-03-23T07:25:13.004Z,52.93
2019-03-23T07:27:41.414Z,54.87
2019-03-23T07:30:17.740Z,58.53
2019-03-23T07:32:46.351Z,54.93
2019-03-23T07:35:16.089Z,56.50
2019-03-23T07:37:44.493Z,57.00
2019-03-23T07:40:13.681Z,57.80
2019-03-23T07:42:42.073Z,58.27
2019-03-23T07:45:12.720Z,60.20
2019-03-23T07:47:41.150Z,56.40
2019-03-23T07:50:11.397Z,58.57
2019-03-23T07:52:39.879Z,58.83
2019-03-23T07:55:16.216Z,59.93
2019-03-23T07:57:44.993Z,60.53
2019-03-23T08:00:16.208Z,60.23
2019-03-23T08:02:44.718Z,62.30
2019-03-23T08:05:13.109Z,68.83
2019-03-23T08:07:41.593Z,68.77
2019-03-23T08:10:10.569Z,67.60
2019-03-23T08:12:38.969Z,69.30
2019-03-23T08:15:09.216Z,69.90
2019-03-23T08:17:37.649Z,69.03
2019-03-23T08:20:07.589Z,74.47
2019-03-23T08:22:36.027Z,72.33
2019-03-23T08:25:06.379Z,68.53
2019-03-23T08:27:34.785Z,66.17
2019-03-23T08:30:03.680Z,62.67
2019-03-23T08:32:32.076Z,62.60
2019-03-23T08:35:00.492Z,62.60
2019-03-23T08:37:28.927Z,59.73
2019-03-23T08:39:57.329Z,59.43
2019-03-23T08:42:25.744Z,60.00
2019-03-23T08:44:54.163Z,56.30
2019-03-23T08:47:22.582Z,58.90
2019-03-23T08:49:51.010Z,60.57
2019-03-23T08:52:19.404Z,62.27
2019-03-23T08:54:47.846Z,65.60
2019-03-23T08:57:16.252Z,62.77
2019-03-23T08:59:44.661Z,63.90
2019-03-23T09:02:13.318Z,57.90
2019-03-23T09:04:41.725Z,57.33
2019-03-23T09:07:10.117Z,56.90
2019-03-23T09:09:38.563Z,56.83
2019-03-23T09:12:07.884Z,52.10
2019-03-23T09:14:36.304Z,56.87
2019-03-23T09:17:05.066Z,55.23
2019-03-23T09:19:33.501Z,58.93
2019-03-23T09:22:01.917Z,58.13
2019-03-23T09:24:30.359Z,55.50
2019-03-23T09:26:58.938Z,51.47
2019-03-23T09:29:28.361Z,50.63
2019-03-23T09:31:56.788Z,50.67
2019-03-23T09:34:25.231Z,50.57
2019-03-23T09:36:53.615Z,49.80
2019-03-23T09:39:22.037Z,50.00
2019-03-23T09:41:50.440Z,51.13
2019-03-23T09:44:18.941Z,51.40
2019-03-23T09:46:47.380Z,54.47
2019-03-23T09:49:15.777Z,53.47
2019-03-23T09:51:44.196Z,57.33
2019-03-23T09:54:12.855Z,57.87
2019-03-23T09:56:41.257Z,58.83
2019-03-23T09:59:09.667Z,60.53
2019-03-23T10:01:38.088Z,59.83
2019-03-23T10:04:06.501Z,60.07
2019-03-23T10:06:34.937Z,61.57
2019-03-23T10:09:04.506Z,58.60
2019-03-23T10:11:32.912Z,62.03
2019-03-23T10:14:03.138Z,63.77
2019-03-23T10:16:31.617Z,65.00
2019-03-23T10:19:00.040Z,61.80
2019-03-23T10:21:28.452Z,63.10
2019-03-23T10:23:56.854Z,59.53
2019-03-23T10:26:25.280Z,60.53
2019-03-23T10:28:53.676Z,58.33
2019-03-23T10:31:22.099Z,53.87
2019-03-23T10:33:50.525Z,48.80
2019-03-23T10:36:18.919Z,48.23
2019-03-23T10:38:47.345Z,47.70
2019-03-23T10:41:15.783Z,49.43
2019-03-23T10:43:44.183Z,56.87
2019-03-23T10:46:12.589Z,59.13
2019-03-23T10:48:41.017Z,61.60
2019-03-23T10:51:10.363Z,59.27
2019-03-23T10:53:38.776Z,59.93
2019-03-23T10:56:07.658Z,60.53
2019-03-23T10:58:36.069Z,60.30
2019-03-23T11:01:04.510Z,62.00
2019-03-23T11:03:32.892Z,63.67
2019-03-23T11:06:01.297Z,59.70
2019-03-23T11:08:29.738Z,64.20
2019-03-23T11:10:58.141Z,64.60
2019-03-23T11:13:26.552Z,64.87
2019-03-23T11:15:54.999Z,66.37
2019-03-23T11:18:23.394Z,66.73
2019-03-23T11:20:51.835Z,65.73
2019-03-23T11:23:20.308Z,65.13
2019-03-23T11:25:48.721Z,64.97
2019-03-23T11:28:17.115Z,64.53
2019-03-23T11:30:45.557Z,67.10
2019-03-23T11:33:13.955Z,63.43
2019-03-23T11:35:42.375Z,65.40
2019-03-23T11:38:10.825Z,64.07
2019-03-23T11:40:39.220Z,64.17
2019-03-23T11:43:07.620Z,64.97
2019-03-23T11:45:36.047Z,64.40
2019-03-23T11:48:04.449Z,63.07
2019-03-23T11:50:32.886Z,65.53
2019-03-23T11:53:01.294Z,64.17
2019-03-23T11:55:29.705Z,62.23
2019-03-23T11:57:58.123Z,63.27
2019-03-23T12:00:26.548Z,62.70
2019-03-23T12:02:54.970Z,61.53
2019-03-23T12:05:23.377Z,62.37
2019-03-23T12:07:51.831Z,64.73
2019-03-23T12:10:20.234Z,62.03
2019-03-23T12:12:48.710Z,60.90
2019-03-23T12:15:18.760Z,59.93
2019-03-23T12:17:47.166Z,59.03
2019-03-23T12:20:15.637Z,58.80
2019-03-23T12:22:44.142Z,58.10
2019-03-23T12:25:12.893Z,60.70
2019-03-23T12:27:41.301Z,61.60
2019-03-23T12:30:17.986Z,60.63
2019-03-23T12:32:46.386Z,60.63
2019-03-23T12:35:14.793Z,60.77
2019-03-23T12:37:43.224Z,59.73
2019-03-23T12:40:12.376Z,58.07
2019-03-23T12:42:40.805Z,60.03
2019-03-23T12:45:09.927Z,61.00
2019-03-23T12:47:38.320Z,58.87
2019-03-23T12:50:09.426Z,60.63
2019-03-23T12:52:37.850Z,60.50
2019-03-23T12:55:09.504Z,60.37
2019-03-23T12:57:37.941Z,60.80
2019-03-23T13:00:12.281Z,60.70
2019-03-23T13:02:40.689Z,56.50
2019-03-23T13:05:09.448Z,57.50
2019-03-23T13:07:37.847Z,54.77
2019-03-23T13:10:08.896Z,54.67
2019-03-23T13:12:37.362Z,56.07
2019-03-23T13:15:08.248Z,55.77
2019-03-23T13:17:36.680Z,56.33
2019-03-23T13:20:05.920Z,58.20
2019-03-23T13:22:36.048Z,55.97
2019-03-23T13:25:06.993Z,61.10
2019-03-23T13:27:35.413Z,57.80
2019-03-23T13:30:06.959Z,57.53
2019-03-23T13:32:35.364Z,53.93
2019-03-23T13:35:04.325Z,55.57
2019-03-23T13:37:32.733Z,54.63
2019-03-23T13:40:01.147Z,56.40
2019-03-23T13:42:29.561Z,58.73
2019-03-23T13:44:57.996Z,57.07
2019-03-23T13:47:26.400Z,57.47
2019-03-23T13:49:55.008Z,58.93
2019-03-23T13:52:23.416Z,61.70
2019-03-23T13:54:51.819Z,58.10
2019-03-23T13:57:20.239Z,56.50
2019-03-23T13:59:48.648Z,61.73
2019-03-23T14:02:17.064Z,60.40
2019-03-23T14:04:45.485Z,61.70
2019-03-23T14:07:14.369Z,61.27
2019-03-23T14:09:45.944Z,60.83
2019-03-23T14:12:20.775Z,62.17
2019-03-23T14:14:53.273Z,59.83
2019-03-23T14:17:21.689Z,59.83
2019-03-23T14:19:50.092Z,60.30
2019-03-23T14:22:18.496Z,61.28
2019-03-23T14:24:47.005Z,62.07
2019-03-23T14:27:15.491Z,61.40
2019-03-23T14:29:45.505Z,64.13
2019-03-23T14:32:14.145Z,64.00
2019-03-23T14:34:42.548Z,62.20
2019-03-23T14:37:10.957Z,61.53
2019-03-23T14:39:39.397Z,58.43
2019-03-23T14:42:08.327Z,54.83
2019-03-23T14:44:36.726Z,54.70
2019-03-23T14:47:05.229Z,56.67
2019-03-23T14:49:33.676Z,56.63
2019-03-23T14:52:02.078Z,53.47
2019-03-23T14:54:30.925Z,54.03
2019-03-23T14:56:59.349Z,56.13
2019-03-23T14:59:27.760Z,53.90
2019-03-23T15:01:56.156Z,51.87
2019-03-23T15:04:24.585Z,51.20
2019-03-23T15:06:53.004Z,51.87
2019-03-23T15:09:21.413Z,51.97
2019-03-23T15:11:49.808Z,49.43
2019-03-23T15:14:18.237Z,50.80
2019-03-23T15:16:46.704Z,53.07
2019-03-23T15:19:15.748Z,48.47
2019-03-23T15:21:44.306Z,49.50
2019-03-23T15:24:12.704Z,50.43
2019-03-23T15:26:41.139Z,51.60
2019-03-23T15:29:09.565Z,52.13
2019-03-23T15:31:37.965Z,49.47
2019-03-23T15:34:06.383Z,50.27
2019-03-23T15:36:34.801Z,49.13
2019-03-23T15:39:04.642Z,49.87
2019-03-23T15:41:33.073Z,50.87
2019-03-23T15:44:01.478Z,47.50
2019-03-23T15:46:29.873Z,48.73
2019-03-23T15:48:58.305Z,46.83
2019-03-23T15:51:26.704Z,47.33
2019-03-23T15:53:55.192Z,47.80
2019-03-23T15:56:23.644Z,48.57
2019-03-23T15:58:52.052Z,51.57
2019-03-23T16:01:20.449Z,49.77
2019-03-23T16:03:48.876Z,47.43
2019-03-23T16:06:17.272Z,47.53
2019-03-23T16:08:45.803Z,50.13
2019-03-23T16:11:14.237Z,49.17
2019-03-23T16:13:42.645Z,49.10
2019-03-23T16:16:11.045Z,48.60
2019-03-23T16:18:39.472Z,49.73
2019-03-23T16:21:07.898Z,47.93
2019-03-23T16:23:36.297Z,46.67
2019-03-23T16:26:04.871Z,49.13
2019-03-23T16:28:33.318Z,46.97
2019-03-23T16:31:01.797Z,46.63
2019-03-23T16:33:30.197Z,47.10
2019-03-23T16:35:58.620Z,47.97
2019-03-23T16:38:27.053Z,47.53
2019-03-23T16:40:55.449Z,47.80
2019-03-23T16:43:23.884Z,47.37
2019-03-23T16:45:52.317Z,48.33
2019-03-23T16:48:20.720Z,50.53
2019-03-23T16:50:49.232Z,47.83
2019-03-23T16:53:17.673Z,49.30
2019-03-23T16:55:46.092Z,50.63
2019-03-23T16:58:16.406Z,50.13
2019-03-23T17:00:44.661Z,48.27
2019-03-23T17:03:13.056Z,47.43
2019-03-23T17:05:41.458Z,49.80
2019-03-23T17:08:09.884Z,48.93
2019-03-23T17:10:38.321Z,48.33
2019-03-23T17:13:06.743Z,48.67
2019-03-23T17:15:35.310Z,49.07
2019-03-23T17:18:03.772Z,48.60
2019-03-23T17:20:32.176Z,48.03
2019-03-23T17:23:00.624Z,49.50
2019-03-23T17:25:29.030Z,49.27
2019-03-23T17:27:57.476Z,50.20
2019-03-23T17:30:25.904Z,47.40
2019-03-23T17:32:54.317Z,47.57
2019-03-23T17:35:22.716Z,46.70
2019-03-23T17:37:51.292Z,47.40
2019-03-23T17:40:19.692Z,47.63
2019-03-23T17:42:48.439Z,47.63
2019-03-23T17:45:16.879Z,49.10
2019-03-23T17:47:45.285Z,50.23
2019-03-23T17:50:14.106Z,48.83
2019-03-23T17:52:42.586Z,49.73
2019-03-23T17:55:11.365Z,48.43
2019-03-23T17:57:39.787Z,47.90
2019-03-23T18:00:09.096Z,49.57
2019-03-23T18:02:37.797Z,50.50
2019-03-23T18:05:07.810Z,52.00
2019-03-23T18:07:36.275Z,51.37
2019-03-23T18:10:07.016Z,51.07
2019-03-23T18:12:35.765Z,49.80
2019-03-23T18:15:06.800Z,50.00
2019-03-23T18:17:35.274Z,47.80
2019-03-23T18:20:05.136Z,48.50
2019-03-23T18:22:33.532Z,49.87
2019-03-23T18:25:01.936Z,49.33
2019-03-23T18:27:30.389Z,50.97
2019-03-23T18:29:58.808Z,48.33
2019-03-23T18:32:27.218Z,49.83
2019-03-23T18:34:55.707Z,53.90
2019-03-23T18:37:24.103Z,51.87
2019-03-23T18:39:52.585Z,50.07
2019-03-23T18:42:21.083Z,52.77
2019-03-23T18:44:49.513Z,54.50
2019-03-23T18:47:17.956Z,57.77
2019-03-23T18:49:46.413Z,59.40
2019-03-23T18:52:14.813Z,59.67
2019-03-23T18:54:43.213Z,61.47
2019-03-23T18:57:11.900Z,68.83
2019-03-23T18:59:40.393Z,66.33
2019-03-23T19:02:08.807Z,63.27
2019-03-23T19:04:37.254Z,54.50
2019-03-23T19:07:05.677Z,52.40
2019-03-23T19:09:34.093Z,51.60
2019-03-23T19:12:02.488Z,49.37
2019-03-23T19:14:30.911Z,53.23
2019-03-23T19:16:59.369Z,51.63
2019-03-23T19:19:27.778Z,54.67
2019-03-23T19:21:56.177Z,53.10
2019-03-23T19:24:24.649Z,51.93
2019-03-23T19:26:53.056Z,50.37
2019-03-23T19:29:21.456Z,50.43
2019-03-23T19:31:49.903Z,49.27
2019-03-23T19:34:18.317Z,50.65
2019-03-23T19:36:46.788Z,50.57
2019-03-23T19:39:15.233Z,51.17
2019-03-23T19:41:43.656Z,51.83
2019-03-23T19:44:12.082Z,52.80
2019-03-23T19:46:40.700Z,49.47
2019-03-23T19:49:09.126Z,50.90
2019-03-23T19:51:37.521Z,51.17
2019-03-23T19:54:05.959Z,52.40
2019-03-23T19:56:34.358Z,52.20
2019-03-23T19:59:02.758Z,52.37
2019-03-23T20:01:31.202Z,51.13
2019-03-23T20:03:59.617Z,52.97
2019-03-23T20:06:28.014Z,52.33
2019-03-23T20:08:56.560Z,50.20
2019-03-23T20:11:25.036Z,50.97
2019-03-23T20:13:58.658Z,49.20
2019-03-23T20:16:23.693Z,50.63
2019-03-23T20:18:52.085Z,52.47
2019-03-23T20:21:20.520Z,53.20
2019-03-23T20:23:51.176Z,52.60
2019-03-23T20:26:19.045Z,54.27
2019-03-23T20:28:47.468Z,52.67
2019-03-23T20:31:15.865Z,50.97
2019-03-23T20:33:44.300Z,51.97
2019-03-23T20:36:12.698Z,50.03
2019-03-23T20:38:41.093Z,50.57
2019-03-23T20:41:09.528Z,53.37
2019-03-23T20:43:37.934Z,51.33
2019-03-23T20:46:06.329Z,50.80
2019-03-23T20:48:36.498Z,51.40
2019-03-23T20:51:05.197Z,50.23
2019-03-23T20:53:33.862Z,50.57
2019-03-23T20:56:02.288Z,51.10
2019-03-23T20:58:30.694Z,47.63
2019-03-23T21:00:59.093Z,48.40
2019-03-23T21:03:27.529Z,47.63
2019-03-23T21:05:55.924Z,49.73
2019-03-23T21:08:24.353Z,49.30
2019-03-23T21:10:52.750Z,50.07
2019-03-23T21:13:21.153Z,50.57
2019-03-23T21:15:49.577Z,49.23
2019-03-23T21:18:17.971Z,50.43
2019-03-23T21:20:46.429Z,51.23
2019-03-23T21:23:14.851Z,52.00
2019-03-23T21:25:43.252Z,50.80
2019-03-23T21:28:11.678Z,49.43
2019-03-23T21:30:40.072Z,48.43
2019-03-23T21:33:08.498Z,49.77
2019-03-23T21:35:36.901Z,50.57
2019-03-23T21:38:05.400Z,49.93
2019-03-23T21:40:35.025Z,49.70
2019-03-23T21:43:03.732Z,50.27
2019-03-23T21:45:32.136Z,50.33
2019-03-23T21:48:01.631Z,50.30
2019-03-23T21:50:30.037Z,48.73
2019-03-23T21:52:58.501Z,48.97
2019-03-23T21:55:26.922Z,49.97
2019-03-23T21:57:55.405Z,48.93
2019-03-23T22:00:31.228Z,51.40
2019-03-23T22:02:59.932Z,50.07
2019-03-23T22:05:28.335Z,49.60
2019-03-23T22:07:56.728Z,49.00
2019-03-23T22:10:25.170Z,49.33
2019-03-23T22:12:53.589Z,50.67
2019-03-23T22:15:22.022Z,50.97
2019-03-23T22:17:50.442Z,50.57
2019-03-23T22:20:18.862Z,52.03
2019-03-23T22:22:47.302Z,50.97
2019-03-23T22:25:15.712Z,49.27
2019-03-23T22:27:44.130Z,48.50
2019-03-23T22:30:15.882Z,52.23
2019-03-23T22:32:44.300Z,54.13
2019-03-23T22:35:12.877Z,52.70
2019-03-23T22:37:41.271Z,51.57
2019-03-23T22:40:14.567Z,52.50
2019-03-23T22:42:43.025Z,50.73
2019-03-23T22:45:12.840Z,51.40
2019-03-23T22:47:41.267Z,53.03
2019-03-23T22:50:10.309Z,53.37
2019-03-23T22:52:38.960Z,54.23
2019-03-23T22:55:07.630Z,52.93
2019-03-23T22:57:36.037Z,52.13
2019-03-23T23:00:09.675Z,53.53
2019-03-23T23:02:38.142Z,53.87
2019-03-23T23:05:07.561Z,55.07
2019-03-23T23:07:35.956Z,52.13
2019-03-23T23:10:06.224Z,55.97
2019-03-23T23:12:34.628Z,54.07
2019-03-23T23:15:04.611Z,53.93
2019-03-23T23:17:33.508Z,52.83
2019-03-23T23:20:01.908Z,53.17
2019-03-23T23:22:30.308Z,52.23
2019-03-23T23:24:58.719Z,55.30
2019-03-23T23:27:27.120Z,53.23
2019-03-23T23:29:55.552Z,52.27
2019-03-23T23:32:23.960Z,52.97
2019-03-23T23:34:52.415Z,53.17
2019-03-23T23:37:20.880Z,52.50
2019-03-23T23:39:49.282Z,54.03
2019-03-23T23:42:17.675Z,54.20
2019-03-23T23:44:46.118Z,50.73
2019-03-23T23:47:14.497Z,52.57
2019-03-23T23:49:42.898Z,52.37
2019-03-23T23:52:11.325Z,52.53
2019-03-23T23:54:39.730Z,52.10
2019-03-23T23:57:08.131Z,53.43
2019-03-23T23:59:36.573Z,52.70
